ENTO

Sandefjord/Torp

Airport
ICAO code
ENTO
Summary
ICAO Region
EUR
ICAO Territory
Location

Stokke, Norway,

Elevation
286 ft
Coordinates
59° 11' 12" N , 10° 15' 31" E
KCC
Metar
Observation
ENTO 260750Z 17009KT 9999 RA FEW007 SCT011 BKN016 10/10 Q0993 TEMPO BKN011
Station
Torp
Date/Time
2022-09-26 07:50:00
Wind direction
170°
Wind speed
09 kts
Lowest cloud amount
few clouds
Temperature
10°C
Dew point
10°C
Humidity
100%
QNH
993 hPa
Weather condition
rain

Description

Sandefjord Airport, Torp is an second level international airport located 4 nm northeast of Sandefjord, Norway.

Climatology

Temperate Marine climate/Oceanic climate (Köppen climate classification Cfb). Moderately cool summer and comparatively warm winter with a temperature range of only 14°C. Prevailing south-westerly winds from the Atlantic Ocean.

Runways

Designator Length Width Surface Rops
18/36 2949 45 ASP Yes/Yes

Airport map

Aerial View

Airport accidents

SKYbrary Partners:

Safety knowledge contributed by: